sensor_id;sensor_type;location;lat;lon;timestamp;pressure;altitude;pressure_sealevel;temperature;humidity
59608;BME280;45426;44.726;10.390;2023-02-18T00:00:25;101864.63;;;7.25;100.00
59608;BME280;45426;44.726;10.390;2023-02-18T00:02:51;101858.97;;;7.21;100.00
59608;BME280;45426;44.726;10.390;2023-02-18T00:05:17;101859.16;;;7.45;100.00
59608;BME280;45426;44.726;10.390;2023-02-18T00:07:43;101855.63;;;7.50;100.00
59608;BME280;45426;44.726;10.390;2023-02-18T00:10:11;101857.78;;;7.53;100.00
59608;BME280;45426;44.726;10.390;2023-02-18T00:12:37;101859.91;;;7.61;100.00
59608;BME280;45426;44.726;10.390;2023-02-18T00:15:03;101846.88;;;7.78;100.00
59608;BME280;45426;44.726;10.390;2023-02-18T00:17:28;101843.63;;;7.76;100.00
59608;BME280;45426;44.726;10.390;2023-02-18T00:19:54;101854.66;;;7.85;100.00
59608;BME280;45426;44.726;10.390;2023-02-18T00:22:21;101849.88;;;7.72;100.00
59608;BME280;45426;44.726;10.390;2023-02-18T00:24:47;101846.09;;;7.73;100.00
59608;BME280;45426;44.726;10.390;2023-02-18T00:27:12;101849.66;;;7.63;100.00
59608;BME280;45426;44.726;10.390;2023-02-18T00:29:38;101861.03;;;7.55;100.00
59608;BME280;45426;44.726;10.390;2023-02-18T00:32:03;101869.19;;;7.39;100.00
59608;BME280;45426;44.726;10.390;2023-02-18T00:34:29;101875.75;;;6.97;100.00
59608;BME280;45426;44.726;10.390;2023-02-18T00:36:54;101875.50;;;6.58;100.00
59608;BME280;45426;44.726;10.390;2023-02-18T00:39:19;101863.63;;;6.59;100.00
59608;BME280;45426;44.726;10.390;2023-02-18T00:41:45;101872.25;;;6.56;100.00
59608;BME280;45426;44.726;10.390;2023-02-18T00:44:10;101866.31;;;6.74;100.00
59608;BME280;45426;44.726;10.390;2023-02-18T00:46:37;101868.47;;;6.47;100.00
59608;BME280;45426;44.726;10.390;2023-02-18T00:49:03;101867.94;;;6.34;100.00
59608;BME280;45426;44.726;10.390;2023-02-18T00:51:29;101863.59;;;6.28;100.00
59608;BME280;45426;44.726;10.390;2023-02-18T00:53:55;101860.38;;;6.31;100.00
59608;BME280;45426;44.726;10.390;2023-02-18T00:56:22;101856.59;;;6.78;100.00
59608;BME280;45426;44.726;10.390;2023-02-18T00:58:47;101861.31;;;5.84;100.00
59608;BME280;45426;44.726;10.390;2023-02-18T01:01:13;101861.25;;;5.63;100.00
59608;BME280;45426;44.726;10.390;2023-02-18T01:03:40;101867.72;;;5.68;100.00
59608;BME280;45426;44.726;10.390;2023-02-18T01:06:06;101859.44;;;5.90;100.00
59608;BME280;45426;44.726;10.390;2023-02-18T01:08:34;101869.28;;;6.32;100.00
59608;BME280;45426;44.726;10.390;2023-02-18T01:11:00;101868.19;;;6.33;100.00
59608;BME280;45426;44.726;10.390;2023-02-18T01:13:26;101866.81;;;6.05;100.00
59608;BME280;45426;44.726;10.390;2023-02-18T01:15:52;101866.88;;;6.56;100.00
59608;BME280;45426;44.726;10.390;2023-02-18T01:18:18;101861.47;;;6.56;100.00
59608;BME280;45426;44.726;10.390;2023-02-18T01:20:44;101848.75;;;6.82;100.00
59608;BME280;45426;44.726;10.390;2023-02-18T01:23:11;101849.59;;;6.57;100.00
59608;BME280;45426;44.726;10.390;2023-02-18T01:25:36;101856.34;;;6.59;100.00
59608;BME280;45426;44.726;10.390;2023-02-18T01:28:03;101858.47;;;5.48;100.00
59608;BME280;45426;44.726;10.390;2023-02-18T01:30:29;101861.59;;;4.50;100.00
59608;BME280;45426;44.726;10.390;2023-02-18T01:32:56;101855.28;;;5.09;100.00
59608;BME280;45426;44.726;10.390;2023-02-18T01:35:22;101851.38;;;5.32;100.00
59608;BME280;45426;44.726;10.390;2023-02-18T01:37:48;101853.41;;;5.09;100.00
59608;BME280;45426;44.726;10.390;2023-02-18T01:40:19;101844.44;;;4.98;100.00
59608;BME280;45426;44.726;10.390;2023-02-18T01:42:44;101852.38;;;4.78;100.00
59608;BME280;45426;44.726;10.390;2023-02-18T01:48:44;101844.38;;;4.88;100.00
59608;BME280;45426;44.726;10.390;2023-02-18T01:50:48;101839.94;;;5.09;100.00
59608;BME280;45426;44.726;10.390;2023-02-18T01:53:17;101835.44;;;4.82;100.00
59608;BME280;45426;44.726;10.390;2023-02-18T01:55:45;101840.22;;;4.38;100.00
59608;BME280;45426;44.726;10.390;2023-02-18T01:58:12;101826.91;;;4.26;100.00
59608;BME280;45426;44.726;10.390;2023-02-18T02:00:37;101833.25;;;4.74;100.00
59608;BME280;45426;44.726;10.390;2023-02-18T02:03:03;101827.84;;;4.37;100.00
59608;BME280;45426;44.726;10.390;2023-02-18T02:05:31;101818.22;;;4.14;100.00
59608;BME280;45426;44.726;10.390;2023-02-18T02:07:57;101812.00;;;3.86;100.00
59608;BME280;45426;44.726;10.390;2023-02-18T02:10:28;101812.91;;;3.69;100.00
59608;BME280;45426;44.726;10.390;2023-02-18T02:16:11;101811.22;;;3.85;100.00
59608;BME280;45426;44.726;10.390;2023-02-18T02:27:08;101804.81;;;3.92;100.00
59608;BME280;45426;44.726;10.390;2023-02-18T02:40:17;101813.38;;;3.39;100.00
59608;BME280;45426;44.726;10.390;2023-02-18T02:45:54;101797.19;;;4.11;100.00
59608;BME280;45426;44.726;10.390;2023-02-18T02:48:37;101801.13;;;3.48;100.00
59608;BME280;45426;44.726;10.390;2023-02-18T02:51:27;101805.22;;;3.34;100.00
59608;BME280;45426;44.726;10.390;2023-02-18T02:53:54;101796.78;;;3.47;100.00
59608;BME280;45426;44.726;10.390;2023-02-18T02:56:22;101804.47;;;3.61;100.00
59608;BME280;45426;44.726;10.390;2023-02-18T02:59:00;101802.16;;;3.25;100.00
59608;BME280;45426;44.726;10.390;2023-02-18T03:07:13;101796.25;;;3.95;100.00
59608;BME280;45426;44.726;10.390;2023-02-18T03:12:35;101792.25;;;3.48;100.00
59608;BME280;45426;44.726;10.390;2023-02-18T03:15:45;101799.09;;;4.42;100.00
59608;BME280;45426;44.726;10.390;2023-02-18T03:18:25;101792.22;;;3.97;100.00
59608;BME280;45426;44.726;10.390;2023-02-18T03:20:57;101796.72;;;3.64;100.00
59608;BME280;45426;44.726;10.390;2023-02-18T03:23:32;101802.59;;;3.17;100.00
59608;BME280;45426;44.726;10.390;2023-02-18T03:26:00;101806.00;;;3.29;100.00
59608;BME280;45426;44.726;10.390;2023-02-18T03:28:29;101804.28;;;4.22;100.00
59608;BME280;45426;44.726;10.390;2023-02-18T03:31:00;101804.59;;;3.98;100.00
59608;BME280;45426;44.726;10.390;2023-02-18T03:33:30;101804.50;;;3.88;100.00
59608;BME280;45426;44.726;10.390;2023-02-18T03:35:57;101806.25;;;3.77;100.00
59608;BME280;45426;44.726;10.390;2023-02-18T03:38:34;101809.88;;;3.39;100.00
59608;BME280;45426;44.726;10.390;2023-02-18T03:41:03;101809.41;;;3.47;100.00
59608;BME280;45426;44.726;10.390;2023-02-18T03:43:29;101807.88;;;4.00;100.00
59608;BME280;45426;44.726;10.390;2023-02-18T03:45:55;101809.06;;;2.99;100.00
59608;BME280;45426;44.726;10.390;2023-02-18T03:48:20;101819.66;;;2.89;100.00
59608;BME280;45426;44.726;10.390;2023-02-18T03:50:46;101816.91;;;2.67;100.00
59608;BME280;45426;44.726;10.390;2023-02-18T03:53:11;101822.91;;;2.23;100.00
59608;BME280;45426;44.726;10.390;2023-02-18T03:55:37;101817.25;;;2.53;100.00
59608;BME280;45426;44.726;10.390;2023-02-18T03:58:02;101812.19;;;2.40;100.00
59608;BME280;45426;44.726;10.390;2023-02-18T04:00:27;101813.72;;;2.19;100.00
59608;BME280;45426;44.726;10.390;2023-02-18T04:02:53;101802.59;;;2.61;100.00
59608;BME280;45426;44.726;10.390;2023-02-18T04:05:18;101802.50;;;2.39;100.00
59608;BME280;45426;44.726;10.390;2023-02-18T04:07:44;101804.06;;;2.69;100.00
59608;BME280;45426;44.726;10.390;2023-02-18T04:10:09;101815.28;;;2.32;100.00
59608;BME280;45426;44.726;10.390;2023-02-18T04:12:35;101805.50;;;2.77;100.00
59608;BME280;45426;44.726;10.390;2023-02-18T04:15:00;101801.91;;;2.88;100.00
59608;BME280;45426;44.726;10.390;2023-02-18T04:17:26;101806.97;;;2.50;100.00
59608;BME280;45426;44.726;10.390;2023-02-18T04:19:51;101803.97;;;2.47;100.00
59608;BME280;45426;44.726;10.390;2023-02-18T04:22:17;101804.75;;;2.98;100.00
59608;BME280;45426;44.726;10.390;2023-02-18T04:24:42;101807.16;;;2.78;100.00
59608;BME280;45426;44.726;10.390;2023-02-18T04:27:07;101809.75;;;2.72;100.00
59608;BME280;45426;44.726;10.390;2023-02-18T04:29:33;101803.09;;;2.58;100.00
59608;BME280;45426;44.726;10.390;2023-02-18T04:31:58;101804.91;;;2.52;100.00
59608;BME280;45426;44.726;10.390;2023-02-18T04:34:24;101804.47;;;2.78;100.00
59608;BME280;45426;44.726;10.390;2023-02-18T04:36:49;101809.50;;;2.57;100.00
59608;BME280;45426;44.726;10.390;2023-02-18T04:39:15;101810.88;;;2.60;100.00
59608;BME280;45426;44.726;10.390;2023-02-18T04:41:40;101809.28;;;2.59;100.00
59608;BME280;45426;44.726;10.390;2023-02-18T04:44:06;101807.31;;;2.71;100.00
59608;BME280;45426;44.726;10.390;2023-02-18T04:46:31;101816.75;;;2.57;100.00
59608;BME280;45426;44.726;10.390;2023-02-18T04:48:57;101815.28;;;2.66;100.00
59608;BME280;45426;44.726;10.390;2023-02-18T04:51:22;101815.03;;;2.33;100.00
59608;BME280;45426;44.726;10.390;2023-02-18T04:53:48;101821.84;;;2.24;100.00
59608;BME280;45426;44.726;10.390;2023-02-18T04:56:13;101826.97;;;2.26;100.00
59608;BME280;45426;44.726;10.390;2023-02-18T04:58:38;101820.09;;;2.01;100.00
59608;BME280;45426;44.726;10.390;2023-02-18T05:01:04;101825.69;;;2.28;100.00
59608;BME280;45426;44.726;10.390;2023-02-18T05:03:29;101823.88;;;2.17;100.00
59608;BME280;45426;44.726;10.390;2023-02-18T05:05:55;101827.06;;;2.31;100.00
59608;BME280;45426;44.726;10.390;2023-02-18T05:08:21;101824.84;;;2.28;100.00
59608;BME280;45426;44.726;10.390;2023-02-18T05:10:46;101820.97;;;1.90;100.00
59608;BME280;45426;44.726;10.390;2023-02-18T05:13:12;101822.41;;;1.81;100.00
59608;BME280;45426;44.726;10.390;2023-02-18T05:15:37;101826.19;;;1.97;100.00
59608;BME280;45426;44.726;10.390;2023-02-18T05:18:03;101827.72;;;2.38;100.00
59608;BME280;45426;44.726;10.390;2023-02-18T05:20:28;101825.50;;;2.18;100.00
59608;BME280;45426;44.726;10.390;2023-02-18T05:22:54;101827.09;;;2.02;100.00
59608;BME280;45426;44.726;10.390;2023-02-18T05:25:19;101825.31;;;1.79;100.00
59608;BME280;45426;44.726;10.390;2023-02-18T05:27:45;101830.00;;;2.01;100.00
59608;BME280;45426;44.726;10.390;2023-02-18T05:30:11;101830.38;;;2.21;100.00
59608;BME280;45426;44.726;10.390;2023-02-18T05:32:36;101834.47;;;1.95;100.00
59608;BME280;45426;44.726;10.390;2023-02-18T05:35:01;101836.47;;;1.88;100.00
59608;BME280;45426;44.726;10.390;2023-02-18T05:37:27;101836.25;;;2.35;100.00
59608;BME280;45426;44.726;10.390;2023-02-18T05:39:52;101828.97;;;2.19;100.00
59608;BME280;45426;44.726;10.390;2023-02-18T05:42:18;101825.84;;;2.39;100.00
59608;BME280;45426;44.726;10.390;2023-02-18T05:44:43;101823.91;;;2.34;100.00
59608;BME280;45426;44.726;10.390;2023-02-18T05:47:10;101833.31;;;2.20;100.00
59608;BME280;45426;44.726;10.390;2023-02-18T05:49:37;101840.03;;;2.22;100.00
59608;BME280;45426;44.726;10.390;2023-02-18T05:52:03;101838.47;;;2.09;100.00
59608;BME280;45426;44.726;10.390;2023-02-18T05:54:29;101837.25;;;2.00;100.00
59608;BME280;45426;44.726;10.390;2023-02-18T05:56:55;101841.88;;;2.05;100.00
59608;BME280;45426;44.726;10.390;2023-02-18T05:59:21;101851.66;;;2.28;100.00
59608;BME280;45426;44.726;10.390;2023-02-18T06:01:47;101841.75;;;2.11;100.00
59608;BME280;45426;44.726;10.390;2023-02-18T06:04:13;101836.34;;;1.94;100.00
59608;BME280;45426;44.726;10.390;2023-02-18T06:06:38;101841.44;;;2.25;100.00
59608;BME280;45426;44.726;10.390;2023-02-18T06:09:04;101832.44;;;1.73;100.00
59608;BME280;45426;44.726;10.390;2023-02-18T06:11:30;101832.53;;;1.79;100.00
59608;BME280;45426;44.726;10.390;2023-02-18T06:13:56;101828.72;;;1.74;100.00
59608;BME280;45426;44.726;10.390;2023-02-18T06:16:22;101830.31;;;1.87;100.00
59608;BME280;45426;44.726;10.390;2023-02-18T06:18:47;101833.69;;;1.83;100.00
59608;BME280;45426;44.726;10.390;2023-02-18T06:21:13;101831.41;;;1.74;100.00
59608;BME280;45426;44.726;10.390;2023-02-18T06:23:38;101831.69;;;2.36;100.00
59608;BME280;45426;44.726;10.390;2023-02-18T06:26:03;101824.41;;;2.48;100.00
59608;BME280;45426;44.726;10.390;2023-02-18T06:28:29;101820.72;;;2.71;100.00
59608;BME280;45426;44.726;10.390;2023-02-18T06:30:54;101833.66;;;2.40;100.00
59608;BME280;45426;44.726;10.390;2023-02-18T06:33:20;101824.03;;;2.27;100.00
59608;BME280;45426;44.726;10.390;2023-02-18T06:36:01;101830.63;;;2.37;100.00
59608;BME280;45426;44.726;10.390;2023-02-18T06:38:26;101833.09;;;2.55;100.00
59608;BME280;45426;44.726;10.390;2023-02-18T06:40:52;101838.91;;;3.03;100.00
59608;BME280;45426;44.726;10.390;2023-02-18T06:43:19;101845.72;;;2.55;100.00
59608;BME280;45426;44.726;10.390;2023-02-18T06:45:44;101839.59;;;3.32;100.00
59608;BME280;45426;44.726;10.390;2023-02-18T06:48:10;101831.94;;;3.02;100.00
59608;BME280;45426;44.726;10.390;2023-02-18T06:50:36;101828.75;;;3.05;100.00
59608;BME280;45426;44.726;10.390;2023-02-18T06:53:01;101830.72;;;3.32;100.00
59608;BME280;45426;44.726;10.390;2023-02-18T06:55:27;101829.16;;;3.36;100.00
59608;BME280;45426;44.726;10.390;2023-02-18T06:57:52;101831.03;;;3.79;100.00
59608;BME280;45426;44.726;10.390;2023-02-18T07:00:18;101830.69;;;3.71;100.00
59608;BME280;45426;44.726;10.390;2023-02-18T07:02:44;101831.84;;;4.34;100.00
59608;BME280;45426;44.726;10.390;2023-02-18T07:05:09;101826.09;;;4.90;100.00
59608;BME280;45426;44.726;10.390;2023-02-18T07:07:35;101820.22;;;4.98;100.00
59608;BME280;45426;44.726;10.390;2023-02-18T07:10:00;101821.50;;;5.38;100.00
59608;BME280;45426;44.726;10.390;2023-02-18T07:12:26;101831.09;;;4.76;100.00
59608;BME280;45426;44.726;10.390;2023-02-18T07:14:51;101834.97;;;5.33;100.00
59608;BME280;45426;44.726;10.390;2023-02-18T07:17:17;101830.09;;;4.88;100.00
59608;BME280;45426;44.726;10.390;2023-02-18T07:19:42;101833.72;;;5.56;100.00
59608;BME280;45426;44.726;10.390;2023-02-18T07:22:08;101829.59;;;5.43;100.00
59608;BME280;45426;44.726;10.390;2023-02-18T07:24:34;101834.19;;;6.42;100.00
59608;BME280;45426;44.726;10.390;2023-02-18T07:26:59;101828.47;;;8.20;100.00
59608;BME280;45426;44.726;10.390;2023-02-18T07:29:24;101839.81;;;8.27;100.00
59608;BME280;45426;44.726;10.390;2023-02-18T07:31:50;101834.75;;;8.15;100.00
59608;BME280;45426;44.726;10.390;2023-02-18T07:34:15;101837.47;;;8.55;100.00
59608;BME280;45426;44.726;10.390;2023-02-18T07:36:41;101833.16;;;8.49;100.00
59608;BME280;45426;44.726;10.390;2023-02-18T07:39:06;101833.38;;;9.35;100.00
59608;BME280;45426;44.726;10.390;2023-02-18T07:41:32;101829.47;;;11.49;100.00
59608;BME280;45426;44.726;10.390;2023-02-18T07:43:57;101824.34;;;11.83;100.00
59608;BME280;45426;44.726;10.390;2023-02-18T07:46:23;101828.69;;;12.97;100.00
59608;BME280;45426;44.726;10.390;2023-02-18T07:48:48;101846.13;;;10.73;100.00
59608;BME280;45426;44.726;10.390;2023-02-18T07:51:14;101843.47;;;8.47;100.00
59608;BME280;45426;44.726;10.390;2023-02-18T07:53:39;101844.50;;;8.85;100.00
59608;BME280;45426;44.726;10.390;2023-02-18T07:56:05;101837.28;;;9.29;100.00
59608;BME280;45426;44.726;10.390;2023-02-18T07:58:33;101844.63;;;8.99;100.00
59608;BME280;45426;44.726;10.390;2023-02-18T08:01:02;101841.47;;;9.64;100.00
59608;BME280;45426;44.726;10.390;2023-02-18T08:03:30;101833.41;;;10.16;100.00
59608;BME280;45426;44.726;10.390;2023-02-18T08:05:56;101846.78;;;10.32;100.00
59608;BME280;45426;44.726;10.390;2023-02-18T08:08:24;101834.91;;;11.49;100.00
59608;BME280;45426;44.726;10.390;2023-02-18T08:10:51;101844.91;;;11.39;100.00
59608;BME280;45426;44.726;10.390;2023-02-18T08:13:17;101842.81;;;13.31;100.00
59608;BME280;45426;44.726;10.390;2023-02-18T08:15:42;101842.31;;;11.98;100.00
59608;BME280;45426;44.726;10.390;2023-02-18T08:18:13;101842.78;;;12.14;100.00
59608;BME280;45426;44.726;10.390;2023-02-18T08:20:39;101837.94;;;11.33;100.00
59608;BME280;45426;44.726;10.390;2023-02-18T08:23:05;101835.16;;;12.70;100.00
59608;BME280;45426;44.726;10.390;2023-02-18T08:25:31;101844.66;;;13.13;100.00
59608;BME280;45426;44.726;10.390;2023-02-18T08:27:57;101844.41;;;13.89;100.00
59608;BME280;45426;44.726;10.390;2023-02-18T08:30:23;101845.91;;;14.95;100.00
59608;BME280;45426;44.726;10.390;2023-02-18T08:32:48;101844.47;;;16.08;100.00
59608;BME280;45426;44.726;10.390;2023-02-18T08:35:13;101861.81;;;15.70;100.00
59608;BME280;45426;44.726;10.390;2023-02-18T08:37:39;101845.22;;;17.95;100.00
59608;BME280;45426;44.726;10.390;2023-02-18T08:40:05;101846.19;;;17.25;100.00
59608;BME280;45426;44.726;10.390;2023-02-18T08:42:31;101853.09;;;17.84;100.00
59608;BME280;45426;44.726;10.390;2023-02-18T08:44:56;101860.63;;;15.20;100.00
59608;BME280;45426;44.726;10.390;2023-02-18T08:47:22;101840.59;;;20.84;100.00
59608;BME280;45426;44.726;10.390;2023-02-18T08:49:47;101839.22;;;21.74;100.00
59608;BME280;45426;44.726;10.390;2023-02-18T08:52:13;101839.16;;;19.22;100.00
59608;BME280;45426;44.726;10.390;2023-02-18T08:54:38;101841.44;;;18.28;100.00
59608;BME280;45426;44.726;10.390;2023-02-18T08:57:03;101844.88;;;18.53;100.00
59608;BME280;45426;44.726;10.390;2023-02-18T08:59:29;101838.44;;;21.77;100.00
59608;BME280;45426;44.726;10.390;2023-02-18T09:01:54;101837.34;;;21.51;100.00
59608;BME280;45426;44.726;10.390;2023-02-18T09:04:20;101841.97;;;20.31;100.00
59608;BME280;45426;44.726;10.390;2023-02-18T09:06:46;101846.03;;;15.07;100.00
59608;BME280;45426;44.726;10.390;2023-02-18T09:09:12;101848.69;;;14.86;100.00
59608;BME280;45426;44.726;10.390;2023-02-18T09:11:38;101835.09;;;16.97;100.00
59608;BME280;45426;44.726;10.390;2023-02-18T09:14:03;101836.41;;;15.61;100.00
59608;BME280;45426;44.726;10.390;2023-02-18T09:16:29;101833.03;;;17.06;100.00
59608;BME280;45426;44.726;10.390;2023-02-18T09:18:54;101830.50;;;16.55;100.00
59608;BME280;45426;44.726;10.390;2023-02-18T09:21:21;101831.19;;;17.59;100.00
59608;BME280;45426;44.726;10.390;2023-02-18T09:23:48;101825.03;;;20.75;100.00
59608;BME280;45426;44.726;10.390;2023-02-18T09:26:15;101818.69;;;21.21;100.00
59608;BME280;45426;44.726;10.390;2023-02-18T09:28:41;101815.91;;;21.44;100.00
59608;BME280;45426;44.726;10.390;2023-02-18T09:31:10;101822.22;;;19.90;100.00
59608;BME280;45426;44.726;10.390;2023-02-18T09:33:42;101810.09;;;22.99;100.00
59608;BME280;45426;44.726;10.390;2023-02-18T09:36:08;101807.66;;;20.98;100.00
59608;BME280;45426;44.726;10.390;2023-02-18T09:38:33;101819.94;;;18.77;100.00
59608;BME280;45426;44.726;10.390;2023-02-18T09:41:01;101805.78;;;20.79;100.00
59608;BME280;45426;44.726;10.390;2023-02-18T09:43:33;101800.38;;;22.31;100.00
59608;BME280;45426;44.726;10.390;2023-02-18T09:46:01;101821.00;;;18.57;100.00
59608;BME280;45426;44.726;10.390;2023-02-18T09:48:32;101803.13;;;21.97;100.00
59608;BME280;45426;44.726;10.390;2023-02-18T09:50:59;101802.03;;;23.32;100.00
59608;BME280;45426;44.726;10.390;2023-02-18T09:53:25;101808.34;;;23.25;100.00
59608;BME280;45426;44.726;10.390;2023-02-18T09:55:53;101818.69;;;22.42;100.00
59608;BME280;45426;44.726;10.390;2023-02-18T09:58:23;101811.78;;;23.77;100.00
59608;BME280;45426;44.726;10.390;2023-02-18T10:03:20;101806.50;;;24.60;100.00
59608;BME280;45426;44.726;10.390;2023-02-18T10:08:30;101799.94;;;23.84;100.00
59608;BME280;45426;44.726;10.390;2023-02-18T10:10:58;101789.75;;;25.50;100.00
59608;BME280;45426;44.726;10.390;2023-02-18T10:13:26;101795.94;;;25.86;100.00
59608;BME280;45426;44.726;10.390;2023-02-18T10:15:52;101801.28;;;23.35;100.00
59608;BME280;45426;44.726;10.390;2023-02-18T10:18:44;101802.41;;;18.98;100.00
59608;BME280;45426;44.726;10.390;2023-02-18T10:21:16;101798.63;;;19.38;100.00
59608;BME280;45426;44.726;10.390;2023-02-18T10:26:22;101802.56;;;18.01;100.00
59608;BME280;45426;44.726;10.390;2023-02-18T10:28:49;101791.84;;;19.51;100.00
59608;BME280;45426;44.726;10.390;2023-02-18T10:31:30;101788.94;;;19.28;100.00
59608;BME280;45426;44.726;10.390;2023-02-18T10:34:35;101786.44;;;18.28;100.00
59608;BME280;45426;44.726;10.390;2023-02-18T10:37:22;101778.53;;;18.26;100.00
59608;BME280;45426;44.726;10.390;2023-02-18T10:42:48;101793.56;;;16.98;100.00
59608;BME280;45426;44.726;10.390;2023-02-18T10:45:35;101784.06;;;17.45;100.00
59608;BME280;45426;44.726;10.390;2023-02-18T10:48:27;101782.09;;;17.33;100.00
59608;BME280;45426;44.726;10.390;2023-02-18T10:50:59;101781.38;;;17.61;100.00
59608;BME280;45426;44.726;10.390;2023-02-18T10:53:37;101777.91;;;16.53;100.00
59608;BME280;45426;44.726;10.390;2023-02-18T10:56:05;101772.25;;;16.25;100.00
59608;BME280;45426;44.726;10.390;2023-02-18T10:58:42;101763.84;;;17.00;100.00
59608;BME280;45426;44.726;10.390;2023-02-18T11:01:19;101766.28;;;17.55;100.00
59608;BME280;45426;44.726;10.390;2023-02-18T11:03:50;101762.31;;;17.27;100.00
59608;BME280;45426;44.726;10.390;2023-02-18T11:08:52;101751.31;;;16.78;100.00
59608;BME280;45426;44.726;10.390;2023-02-18T11:11:33;101758.91;;;16.94;100.00
59608;BME280;45426;44.726;10.390;2023-02-18T11:14:05;101741.06;;;17.12;100.00
59608;BME280;45426;44.726;10.390;2023-02-18T11:16:39;101735.66;;;16.79;100.00
59608;BME280;45426;44.726;10.390;2023-02-18T11:19:31;101730.00;;;16.38;100.00
59608;BME280;45426;44.726;10.390;2023-02-18T11:22:18;101725.63;;;16.83;100.00
59608;BME280;45426;44.726;10.390;2023-02-18T11:24:44;101722.19;;;16.16;100.00
59608;BME280;45426;44.726;10.390;2023-02-18T11:27:21;101720.66;;;16.64;100.00
59608;BME280;45426;44.726;10.390;2023-02-18T11:29:53;101714.38;;;17.13;100.00
59608;BME280;45426;44.726;10.390;2023-02-18T11:32:20;101711.97;;;17.23;100.00
59608;BME280;45426;44.726;10.390;2023-02-18T11:34:45;101713.16;;;17.10;100.00
59608;BME280;45426;44.726;10.390;2023-02-18T11:37:18;101711.78;;;16.21;100.00
59608;BME280;45426;44.726;10.390;2023-02-18T11:39:47;101707.19;;;16.96;100.00
59608;BME280;45426;44.726;10.390;2023-02-18T11:42:15;101709.25;;;16.86;100.00
59608;BME280;45426;44.726;10.390;2023-02-18T11:49:43;101682.84;;;17.47;100.00
59608;BME280;45426;44.726;10.390;2023-02-18T11:52:18;101688.38;;;15.57;100.00
59608;BME280;45426;44.726;10.390;2023-02-18T11:55:02;101685.09;;;17.17;100.00
59608;BME280;45426;44.726;10.390;2023-02-18T11:57:29;101679.22;;;17.31;100.00
59608;BME280;45426;44.726;10.390;2023-02-18T11:59:55;101673.75;;;17.18;100.00
59608;BME280;45426;44.726;10.390;2023-02-18T12:04:59;101672.88;;;16.40;100.00
59608;BME280;45426;44.726;10.390;2023-02-18T12:07:30;101664.66;;;16.65;100.00
59608;BME280;45426;44.726;10.390;2023-02-18T12:10:03;101666.94;;;16.63;100.00
59608;BME280;45426;44.726;10.390;2023-02-18T12:13:04;101654.59;;;17.06;100.00
59608;BME280;45426;44.726;10.390;2023-02-18T12:15:37;101646.47;;;16.97;100.00
59608;BME280;45426;44.726;10.390;2023-02-18T12:18:27;101646.16;;;17.27;100.00
59608;BME280;45426;44.726;10.390;2023-02-18T12:21:03;101639.63;;;16.66;100.00
59608;BME280;45426;44.726;10.390;2023-02-18T12:32:07;101613.47;;;16.44;100.00
59608;BME280;45426;44.726;10.390;2023-02-18T12:49:04;101602.56;;;16.60;100.00
59608;BME280;45426;44.726;10.390;2023-02-18T13:05:09;101572.25;;;16.81;100.00
59608;BME280;45426;44.726;10.390;2023-02-18T13:13:06;101560.44;;;16.40;100.00
59608;BME280;45426;44.726;10.390;2023-02-18T13:15:40;101557.97;;;16.88;100.00
59608;BME280;45426;44.726;10.390;2023-02-18T13:18:15;101549.41;;;16.90;100.00
59608;BME280;45426;44.726;10.390;2023-02-18T13:20:47;101550.84;;;16.09;100.00
59608;BME280;45426;44.726;10.390;2023-02-18T13:23:18;101540.75;;;16.63;100.00
59608;BME280;45426;44.726;10.390;2023-02-18T13:25:44;101533.22;;;16.47;100.00
59608;BME280;45426;44.726;10.390;2023-02-18T13:28:20;101540.25;;;16.85;100.00
59608;BME280;45426;44.726;10.390;2023-02-18T13:34:00;101524.47;;;16.82;100.00
59608;BME280;45426;44.726;10.390;2023-02-18T13:39:13;101529.13;;;16.41;100.00
59608;BME280;45426;44.726;10.390;2023-02-18T13:41:45;101519.88;;;16.86;100.00
59608;BME280;45426;44.726;10.390;2023-02-18T13:47:05;101511.75;;;16.37;100.00
59608;BME280;45426;44.726;10.390;2023-02-18T13:49:34;101513.16;;;16.72;100.00
59608;BME280;45426;44.726;10.390;2023-02-18T13:52:02;101514.84;;;16.88;100.00
59608;BME280;45426;44.726;10.390;2023-02-18T13:54:32;101510.47;;;16.59;100.00
59608;BME280;45426;44.726;10.390;2023-02-18T13:57:12;101502.06;;;15.90;100.00
59608;BME280;45426;44.726;10.390;2023-02-18T13:59:44;101503.44;;;15.97;100.00
59608;BME280;45426;44.726;10.390;2023-02-18T14:18:08;101477.78;;;16.54;100.00
59608;BME280;45426;44.726;10.390;2023-02-18T14:28:36;101476.16;;;16.53;100.00
59608;BME280;45426;44.726;10.390;2023-02-18T14:49:52;101457.88;;;15.80;100.00
59608;BME280;45426;44.726;10.390;2023-02-18T14:52:56;101448.25;;;15.61;100.00
59608;BME280;45426;44.726;10.390;2023-02-18T14:55:31;101451.25;;;16.05;100.00
59608;BME280;45426;44.726;10.390;2023-02-18T14:58:28;101450.06;;;15.45;100.00
59608;BME280;45426;44.726;10.390;2023-02-18T15:00:55;101448.69;;;15.26;100.00
59608;BME280;45426;44.726;10.390;2023-02-18T15:03:20;101443.53;;;15.25;100.00
59608;BME280;45426;44.726;10.390;2023-02-18T15:05:50;101436.66;;;15.89;100.00
59608;BME280;45426;44.726;10.390;2023-02-18T15:08:23;101441.91;;;15.82;100.00
59608;BME280;45426;44.726;10.390;2023-02-18T15:11:07;101440.06;;;15.98;100.00
59608;BME280;45426;44.726;10.390;2023-02-18T15:13:35;101446.66;;;15.48;100.00